createdAt,value
2019-04-25T00:02:14.922Z,25.84
2019-04-25T00:04:46.792Z,25.82
2019-04-25T00:07:18.837Z,25.81
2019-04-25T00:09:54.950Z,25.76
2019-04-25T00:12:26.311Z,25.72
2019-04-25T00:14:57.791Z,25.76
2019-04-25T00:17:31.554Z,25.74
2019-04-25T00:20:05.017Z,25.47
2019-04-25T00:22:42.578Z,25.14
2019-04-25T00:25:18.506Z,24.98
2019-04-25T00:27:49.760Z,24.74
2019-04-25T00:30:22.739Z,24.57
2019-04-25T00:32:54.243Z,24.45
2019-04-25T00:35:25.683Z,24.40
2019-04-25T00:37:57.006Z,24.27
2019-04-25T00:40:28.241Z,24.27
2019-04-25T00:43:01.476Z,24.20
2019-04-25T00:45:32.957Z,24.20
2019-04-25T00:48:04.976Z,24.20
2019-04-25T00:50:36.488Z,24.17
2019-04-25T00:53:07.923Z,24.14
2019-04-25T00:55:39.412Z,24.14
2019-04-25T00:58:12.481Z,24.10
2019-04-25T01:00:57.256Z,24.08
2019-04-25T01:03:32.610Z,24.03
2019-04-25T01:06:03.976Z,23.99
2019-04-25T01:08:35.473Z,23.95
2019-04-25T01:11:06.888Z,23.96
2019-04-25T01:13:38.239Z,23.88
2019-04-25T01:16:09.823Z,23.81
2019-04-25T01:18:41.144Z,23.79
2019-04-25T01:21:14.043Z,23.81
2019-04-25T01:23:45.848Z,23.86
2019-04-25T01:26:17.777Z,23.85
2019-04-25T01:28:49.697Z,23.80
2019-04-25T01:31:23.349Z,23.73
2019-04-25T01:33:56.573Z,23.65
2019-04-25T01:36:33.220Z,23.59
2019-04-25T01:39:08.636Z,23.52
2019-04-25T01:41:41.509Z,23.46
2019-04-25T01:44:20.186Z,23.42
2019-04-25T01:46:51.869Z,23.40
2019-04-25T01:49:24.217Z,23.49
2019-04-25T01:51:57.387Z,23.48
2019-04-25T01:54:28.816Z,23.53
2019-04-25T01:57:00.018Z,23.52
2019-04-25T01:59:33.706Z,23.51
2019-04-25T02:02:06.889Z,23.52
2019-04-25T02:04:38.351Z,23.53
2019-04-25T02:07:09.752Z,23.47
2019-04-25T02:09:41.176Z,23.43
2019-04-25T02:12:16.800Z,23.39
2019-04-25T02:14:48.108Z,23.37
2019-04-25T02:17:20.133Z,23.35
2019-04-25T02:19:52.131Z,23.31
2019-04-25T02:22:24.396Z,23.30
2019-04-25T02:24:56.247Z,23.29
2019-04-25T02:27:28.395Z,23.32
2019-04-25T02:29:59.539Z,23.33
2019-04-25T02:32:31.034Z,23.33
2019-04-25T02:35:07.898Z,23.37
2019-04-25T02:37:35.518Z,23.37
2019-04-25T02:40:08.487Z,23.39
2019-04-25T02:42:39.951Z,23.37
2019-04-25T02:45:19.124Z,23.35
2019-04-25T02:48:10.093Z,23.34
2019-04-25T02:50:59.729Z,23.35
2019-04-25T02:53:37.294Z,23.34
2019-04-25T02:56:27.541Z,23.32
2019-04-25T02:58:44.284Z,23.32
2019-04-25T03:01:22.388Z,23.34
2019-04-25T03:03:50.596Z,23.40
2019-04-25T03:06:21.988Z,23.39
2019-04-25T03:08:54.390Z,23.39
2019-04-25T03:11:25.974Z,23.43
2019-04-25T03:13:57.776Z,23.41
2019-04-25T03:16:29.957Z,23.40
2019-04-25T03:19:20.799Z,23.44
2019-04-25T03:21:56.291Z,23.45
2019-04-25T03:24:27.444Z,23.46
2019-04-25T03:26:59.407Z,23.46
2019-04-25T03:29:30.790Z,23.48
2019-04-25T03:32:05.033Z,23.49
2019-04-25T03:34:35.355Z,23.49
2019-04-25T03:37:06.756Z,23.51
2019-04-25T03:39:38.967Z,23.53
2019-04-25T03:42:10.278Z,23.56
2019-04-25T03:44:43.752Z,23.59
2019-04-25T03:47:15.074Z,23.60
2019-04-25T03:49:46.283Z,23.64
2019-04-25T03:52:17.482Z,23.65
2019-04-25T03:54:49.663Z,23.67
2019-04-25T03:57:20.765Z,23.69
2019-04-25T03:59:53.622Z,23.70
2019-04-25T04:02:25.232Z,23.70
2019-04-25T04:04:56.676Z,23.71
2019-04-25T04:07:28.472Z,23.74
2019-04-25T04:09:59.907Z,23.78
2019-04-25T04:12:31.629Z,23.79
2019-04-25T04:15:04.772Z,23.80
2019-04-25T04:17:37.999Z,23.81
2019-04-25T04:20:10.992Z,23.85
2019-04-25T04:22:59.785Z,23.88
2019-04-25T04:25:31.085Z,23.98
2019-04-25T04:28:03.801Z,24.03
2019-04-25T04:30:35.501Z,24.09
2019-04-25T04:33:06.999Z,24.13
2019-04-25T04:35:38.365Z,24.19
2019-04-25T04:38:09.840Z,24.20
2019-04-25T04:40:41.257Z,24.25
2019-04-25T04:43:15.290Z,24.29
2019-04-25T04:45:46.359Z,24.36
2019-04-25T04:48:19.186Z,24.41
2019-04-25T04:50:51.286Z,24.41
2019-04-25T04:53:23.571Z,24.49
2019-04-25T04:55:54.925Z,24.54
2019-04-25T04:58:26.181Z,24.53
2019-04-25T05:00:59.054Z,24.53
2019-04-25T05:03:46.851Z,24.65
2019-04-25T05:06:23.996Z,24.65
2019-04-25T05:08:57.063Z,24.71
2019-04-25T05:11:28.505Z,24.68
2019-04-25T05:13:59.809Z,24.75
2019-04-25T05:16:31.223Z,24.81
2019-04-25T05:19:03.739Z,24.82
2019-04-25T05:21:35.163Z,24.80
2019-04-25T05:24:06.306Z,24.80
2019-04-25T05:26:37.478Z,24.66
2019-04-25T05:29:09.056Z,24.45
2019-04-25T05:31:48.008Z,24.39
2019-04-25T05:34:19.630Z,24.33
2019-04-25T05:36:51.343Z,24.26
2019-04-25T05:39:24.037Z,24.44
2019-04-25T05:41:57.259Z,24.53
2019-04-25T05:44:28.485Z,24.59
2019-04-25T05:46:59.763Z,24.61
2019-04-25T05:49:31.303Z,24.65
2019-04-25T05:52:04.030Z,24.66
2019-04-25T05:54:37.173Z,24.72
2019-04-25T05:57:08.497Z,24.85
2019-04-25T05:59:39.782Z,24.86
2019-04-25T06:02:11.081Z,24.69
2019-04-25T06:04:43.584Z,24.78
2019-04-25T06:07:15.169Z,24.73
2019-04-25T06:09:51.089Z,24.59
2019-04-25T06:12:26.748Z,24.65
2019-04-25T06:14:59.497Z,24.59
2019-04-25T06:17:46.727Z,24.54
2019-04-25T06:20:23.562Z,24.49
2019-04-25T06:23:13.440Z,24.90
2019-04-25T06:25:44.809Z,24.90
2019-04-25T06:28:26.637Z,25.00
2019-04-25T06:30:58.303Z,25.09
2019-04-25T06:33:29.492Z,25.17
2019-04-25T06:36:01.420Z,25.24
2019-04-25T06:38:33.501Z,25.28
2019-04-25T06:41:05.133Z,25.30
2019-04-25T06:43:38.761Z,25.37
2019-04-25T06:46:21.095Z,25.44
2019-04-25T06:48:54.327Z,25.48
2019-04-25T06:51:28.057Z,25.49
2019-04-25T06:53:59.646Z,25.56
2019-04-25T06:56:30.815Z,25.57
2019-04-25T06:59:03.499Z,25.60
2019-04-25T07:01:34.953Z,25.62
2019-04-25T07:04:06.250Z,25.64
2019-04-25T07:06:37.376Z,25.68
2019-04-25T07:09:10.143Z,25.69
2019-04-25T07:11:41.703Z,25.73
2019-04-25T07:14:14.216Z,25.75
2019-04-25T07:16:46.288Z,25.78
2019-04-25T07:19:17.793Z,25.82
2019-04-25T07:21:49.375Z,25.85
2019-04-25T07:24:21.013Z,25.88
2019-04-25T07:27:00.121Z,25.92
2019-04-25T07:29:38.775Z,25.92
2019-04-25T07:32:20.574Z,25.93
2019-04-25T07:34:51.787Z,25.94
2019-04-25T07:37:24.233Z,25.92
2019-04-25T07:39:55.857Z,25.96
2019-04-25T07:42:27.684Z,26.00
2019-04-25T07:45:03.996Z,26.01
2019-04-25T07:47:36.317Z,26.01
2019-04-25T07:50:09.333Z,26.03
2019-04-25T07:52:40.955Z,26.06
2019-04-25T07:55:13.767Z,26.06
2019-04-25T07:57:45.170Z,26.06
2019-04-25T08:00:18.598Z,26.07
2019-04-25T08:02:49.988Z,26.07
2019-04-25T08:05:24.064Z,26.08
2019-04-25T08:07:55.363Z,26.07
2019-04-25T08:10:27.982Z,26.11
2019-04-25T08:12:59.434Z,26.12
2019-04-25T08:15:38.735Z,26.14
2019-04-25T08:18:10.614Z,26.14
2019-04-25T08:20:43.389Z,26.14
2019-04-25T08:23:15.052Z,26.16
2019-04-25T08:25:47.362Z,26.17
2019-04-25T08:28:18.903Z,26.17
2019-04-25T08:30:50.385Z,26.17
2019-04-25T08:33:23.728Z,26.17
2019-04-25T08:36:04.409Z,26.20
2019-04-25T08:38:28.648Z,26.21
2019-04-25T08:41:04.088Z,26.19
2019-04-25T08:43:37.800Z,26.21
2019-04-25T08:46:08.560Z,26.19
2019-04-25T08:48:57.520Z,26.22
2019-04-25T08:51:32.140Z,26.23
2019-04-25T08:54:05.219Z,26.22
2019-04-25T08:56:37.825Z,26.23
2019-04-25T08:59:14.236Z,26.24
2019-04-25T09:02:03.455Z,26.24
2019-04-25T09:04:40.126Z,26.26
2019-04-25T09:07:13.468Z,26.26
2019-04-25T09:09:45.238Z,26.27
2019-04-25T09:12:16.562Z,26.28
2019-04-25T09:14:47.835Z,26.28
2019-04-25T09:17:19.314Z,26.29
2019-04-25T09:19:50.812Z,26.29
2019-04-25T09:22:22.227Z,26.29
2019-04-25T09:24:53.965Z,26.30
2019-04-25T09:27:25.744Z,26.30
2019-04-25T09:29:57.341Z,26.32
2019-04-25T09:32:29.426Z,26.32
2019-04-25T09:35:00.751Z,26.32
2019-04-25T09:37:33.481Z,26.31
2019-04-25T09:40:08.796Z,26.33
2019-04-25T09:42:41.496Z,26.27
2019-04-25T09:45:33.443Z,26.30
2019-04-25T09:48:06.576Z,26.31
2019-04-25T09:50:48.442Z,26.32
2019-04-25T09:53:23.224Z,26.31
2019-04-25T09:55:57.133Z,26.31
2019-04-25T09:58:29.990Z,26.34
2019-04-25T10:01:15.052Z,26.33
2019-04-25T10:03:47.333Z,26.34
2019-04-25T10:06:19.067Z,26.32
2019-04-25T10:08:50.860Z,26.31
2019-04-25T10:11:23.707Z,26.32
2019-04-25T10:14:13.618Z,26.35
2019-04-25T10:16:45.592Z,26.33
2019-04-25T10:19:17.138Z,26.35
2019-04-25T10:21:49.666Z,26.35
2019-04-25T10:24:21.316Z,26.34
2019-04-25T10:26:54.402Z,26.34
2019-04-25T10:29:25.937Z,26.35
2019-04-25T10:31:57.242Z,26.36
2019-04-25T10:34:28.663Z,26.36
2019-04-25T10:37:00.166Z,26.38
2019-04-25T10:39:33.802Z,26.36
2019-04-25T10:42:04.870Z,26.35
2019-04-25T10:44:36.029Z,26.38
2019-04-25T10:47:07.483Z,26.37
2019-04-25T10:49:39.810Z,26.39
2019-04-25T10:52:11.887Z,26.41
2019-04-25T10:54:45.272Z,26.40
2019-04-25T10:57:16.259Z,26.40
2019-04-25T11:00:01.158Z,26.41
2019-04-25T11:02:20.796Z,26.41
2019-04-25T11:05:05.561Z,26.42
2019-04-25T11:07:37.478Z,26.42
2019-04-25T11:10:09.058Z,26.43
2019-04-25T11:12:41.414Z,26.43
2019-04-25T11:15:14.304Z,26.45
2019-04-25T11:17:46.735Z,26.46
2019-04-25T11:20:26.792Z,26.45
2019-04-25T11:22:58.307Z,26.45
2019-04-25T11:25:29.559Z,26.47
2019-04-25T11:28:00.742Z,26.47
2019-04-25T11:30:31.985Z,26.47
2019-04-25T11:33:04.207Z,26.47
2019-04-25T11:35:35.724Z,26.49
2019-04-25T11:38:08.574Z,26.48
2019-04-25T11:40:47.857Z,26.48
2019-04-25T11:43:17.185Z,26.47
2019-04-25T11:45:49.242Z,26.49
2019-04-25T11:48:20.957Z,26.50
2019-04-25T11:50:55.498Z,26.49
2019-04-25T11:53:25.462Z,26.51
2019-04-25T11:55:56.858Z,26.50
2019-04-25T11:58:28.124Z,26.51
2019-04-25T12:00:59.574Z,26.51
2019-04-25T12:03:31.159Z,26.51
2019-04-25T12:06:02.775Z,26.55
2019-04-25T12:08:34.133Z,26.55
2019-04-25T12:11:06.021Z,26.55
2019-04-25T12:13:37.655Z,26.55
2019-04-25T12:16:09.106Z,26.56
2019-04-25T12:18:40.486Z,26.57
2019-04-25T12:21:13.503Z,26.58
2019-04-25T12:23:46.394Z,26.58
2019-04-25T12:26:17.681Z,26.59
2019-04-25T12:28:49.331Z,26.57
2019-04-25T12:31:20.560Z,26.58
2019-04-25T12:33:54.783Z,26.60
2019-04-25T12:36:25.839Z,26.62
2019-04-25T12:38:57.076Z,26.62
2019-04-25T12:41:28.541Z,26.61
2019-04-25T12:44:08.814Z,26.62
2019-04-25T12:46:43.605Z,26.62
2019-04-25T12:49:15.328Z,26.64
2019-04-25T12:51:47.521Z,26.64
2019-04-25T12:54:19.657Z,26.65
2019-04-25T12:56:52.201Z,26.59
2019-04-25T12:59:24.690Z,26.52
2019-04-25T13:01:56.071Z,26.40
2019-04-25T13:04:27.270Z,26.29
2019-04-25T13:06:58.707Z,26.27
2019-04-25T13:09:30.246Z,26.23
2019-04-25T13:12:05.965Z,26.22
2019-04-25T13:14:37.350Z,26.22
2019-04-25T13:17:09.615Z,26.17
2019-04-25T13:19:59.519Z,26.15
2019-04-25T13:22:31.061Z,26.07
2019-04-25T13:25:03.454Z,26.03
2019-04-25T13:27:39.768Z,26.00
2019-04-25T13:30:14.033Z,26.04
2019-04-25T13:32:47.865Z,26.11
2019-04-25T13:35:20.850Z,26.17
2019-04-25T13:37:53.887Z,26.21
2019-04-25T13:40:25.635Z,26.25
2019-04-25T13:42:57.977Z,26.27
2019-04-25T13:45:29.389Z,26.31
2019-04-25T13:48:00.620Z,26.21
2019-04-25T13:50:31.999Z,26.14
2019-04-25T13:53:03.409Z,26.05
2019-04-25T13:55:34.730Z,26.08
2019-04-25T13:58:06.458Z,26.04
2019-04-25T14:00:37.960Z,26.01
2019-04-25T14:03:09.427Z,25.89
2019-04-25T14:05:40.743Z,25.79
2019-04-25T14:08:13.454Z,25.80
2019-04-25T14:10:48.712Z,25.76
2019-04-25T14:13:21.155Z,25.71
2019-04-25T14:15:54.977Z,25.70
2019-04-25T14:18:44.269Z,25.61
2019-04-25T14:21:17.230Z,25.68
2019-04-25T14:23:51.031Z,25.80
2019-04-25T14:26:23.035Z,25.89
2019-04-25T14:28:54.313Z,25.94
2019-04-25T14:31:41.042Z,26.01
2019-04-25T14:33:58.745Z,26.05
2019-04-25T14:36:30.260Z,26.10
2019-04-25T14:39:01.610Z,26.14
2019-04-25T14:41:33.169Z,26.19
2019-04-25T14:44:04.506Z,26.21
2019-04-25T14:46:36.510Z,26.23
2019-04-25T14:49:07.724Z,26.22
2019-04-25T14:51:39.295Z,26.23
2019-04-25T14:54:15.663Z,26.24
2019-04-25T14:57:06.838Z,26.26
2019-04-25T14:59:38.493Z,26.28
2019-04-25T15:02:09.838Z,26.31
2019-04-25T15:04:41.245Z,26.32
2019-04-25T15:07:12.746Z,26.33
2019-04-25T15:09:44.193Z,26.34
2019-04-25T15:12:15.824Z,26.36
2019-04-25T15:14:47.163Z,26.39
2019-04-25T15:17:18.561Z,26.40
2019-04-25T15:19:50.099Z,26.41
2019-04-25T15:22:21.462Z,26.43
2019-04-25T15:24:52.827Z,26.43
2019-04-25T15:27:25.097Z,26.42
2019-04-25T15:29:56.768Z,26.44
2019-04-25T15:32:30.583Z,26.46
2019-04-25T15:35:06.251Z,26.49
2019-04-25T15:37:39.146Z,26.49
2019-04-25T15:40:14.936Z,26.50
2019-04-25T15:42:48.167Z,26.53
2019-04-25T15:45:21.097Z,26.55
2019-04-25T15:47:53.386Z,26.57
2019-04-25T15:50:26.319Z,26.59
2019-04-25T15:52:57.975Z,26.57
2019-04-25T15:55:29.708Z,26.59
2019-04-25T15:58:01.101Z,26.61
2019-04-25T16:00:34.915Z,26.61
2019-04-25T16:03:07.136Z,26.65
2019-04-25T16:05:38.519Z,26.67
2019-04-25T16:08:09.759Z,26.68
2019-04-25T16:10:41.223Z,26.68
2019-04-25T16:13:12.621Z,26.67
2019-04-25T16:15:44.034Z,26.67
2019-04-25T16:18:15.581Z,26.68
2019-04-25T16:20:47.030Z,26.70
2019-04-25T16:23:18.473Z,26.70
2019-04-25T16:25:50.443Z,26.70
2019-04-25T16:28:21.629Z,26.72
2019-04-25T16:30:53.144Z,26.71
2019-04-25T16:33:24.457Z,26.73
2019-04-25T16:35:55.935Z,26.73
2019-04-25T16:38:27.608Z,26.75
2019-04-25T16:40:58.871Z,26.75
2019-04-25T16:43:32.294Z,26.75
2019-04-25T16:46:03.775Z,26.77
2019-04-25T16:48:35.684Z,26.77
2019-04-25T16:51:07.184Z,26.78
2019-04-25T16:53:38.624Z,26.74
2019-04-25T16:56:10.407Z,26.71
2019-04-25T16:58:44.909Z,26.73
2019-04-25T17:01:17.974Z,26.71
2019-04-25T17:03:49.384Z,26.74
2019-04-25T17:06:20.824Z,26.73
2019-04-25T17:08:52.236Z,26.72
2019-04-25T17:11:24.187Z,26.73
2019-04-25T17:13:57.026Z,26.74
2019-04-25T17:16:45.817Z,26.73
2019-04-25T17:19:18.602Z,26.74
2019-04-25T17:21:49.694Z,26.72
2019-04-25T17:24:20.814Z,26.74
2019-04-25T17:26:52.644Z,26.76
2019-04-25T17:29:23.808Z,26.75
2019-04-25T17:31:59.770Z,26.76
2019-04-25T17:34:35.496Z,26.76
2019-04-25T17:37:08.641Z,26.77
2019-04-25T17:39:44.260Z,26.75
2019-04-25T17:42:17.038Z,26.78
2019-04-25T17:44:49.772Z,26.76
2019-04-25T17:47:21.089Z,26.76
2019-04-25T17:49:52.320Z,26.77
2019-04-25T17:52:34.786Z,26.79
2019-04-25T17:55:08.758Z,26.82
2019-04-25T17:57:40.091Z,26.99
2019-04-25T18:00:13.215Z,27.02
2019-04-25T18:02:44.946Z,27.03
2019-04-25T18:05:16.458Z,27.01
2019-04-25T18:07:47.777Z,26.98
2019-04-25T18:10:19.301Z,26.90
2019-04-25T18:12:50.655Z,26.89
2019-04-25T18:15:39.850Z,26.91
2019-04-25T18:18:15.360Z,26.91
2019-04-25T18:20:46.882Z,26.91
2019-04-25T18:23:31.669Z,26.92
2019-04-25T18:26:04.462Z,26.92
2019-04-25T18:28:41.481Z,26.93
2019-04-25T18:31:12.970Z,26.94
2019-04-25T18:33:44.321Z,26.94
2019-04-25T18:36:29.334Z,26.96
2019-04-25T18:39:05.006Z,26.96
2019-04-25T18:41:40.575Z,27.00
2019-04-25T18:44:13.331Z,26.99
2019-04-25T18:46:51.778Z,27.00
2019-04-25T18:49:22.968Z,27.02
2019-04-25T18:51:58.089Z,27.01
2019-04-25T18:54:37.442Z,27.01
2019-04-25T18:57:19.261Z,27.01
2019-04-25T18:59:54.702Z,27.02
2019-04-25T19:02:39.761Z,27.03
2019-04-25T19:05:31.862Z,27.01
2019-04-25T19:08:04.766Z,27.02
2019-04-25T19:10:36.676Z,27.02
2019-04-25T19:13:13.011Z,27.01
2019-04-25T19:15:41.283Z,27.01
2019-04-25T19:18:12.750Z,27.02
2019-04-25T19:20:44.394Z,27.04
2019-04-25T19:23:15.653Z,27.02
2019-04-25T19:25:47.783Z,27.04
2019-04-25T19:28:19.176Z,27.03
2019-04-25T19:30:51.398Z,27.04
2019-04-25T19:33:34.933Z,27.03
2019-04-25T19:35:57.424Z,27.03
2019-04-25T19:38:28.658Z,27.05
2019-04-25T19:41:07.785Z,27.06
2019-04-25T19:43:47.442Z,27.05
2019-04-25T19:46:18.778Z,27.04
2019-04-25T19:48:51.111Z,27.04
2019-04-25T19:51:26.450Z,27.05
2019-04-25T19:53:59.249Z,27.05
2019-04-25T19:56:33.106Z,27.05
2019-04-25T19:59:05.146Z,27.02
2019-04-25T20:01:36.766Z,27.02
2019-04-25T20:04:09.680Z,26.99
2019-04-25T20:06:58.896Z,26.98
2019-04-25T20:09:34.504Z,27.00
2019-04-25T20:12:10.526Z,27.00
2019-04-25T20:14:45.615Z,27.01
2019-04-25T20:17:17.310Z,26.99
2019-04-25T20:19:54.099Z,27.00
2019-04-25T20:22:27.550Z,27.07
2019-04-25T20:24:59.042Z,27.11
2019-04-25T20:27:30.839Z,27.15
2019-04-25T20:30:02.450Z,27.20
2019-04-25T20:32:46.306Z,27.23
2019-04-25T20:35:17.951Z,27.25
2019-04-25T20:37:56.880Z,27.21
2019-04-25T20:40:31.026Z,27.19
2019-04-25T20:43:05.136Z,27.13
2019-04-25T20:45:39.127Z,27.12
2019-04-25T20:48:14.308Z,27.14
2019-04-25T20:50:46.830Z,27.16
2019-04-25T20:53:18.453Z,27.15
2019-04-25T20:55:50.830Z,27.14
2019-04-25T20:58:22.283Z,27.12
2019-04-25T21:00:57.935Z,27.12
2019-04-25T21:03:29.308Z,27.10
2019-04-25T21:06:05.602Z,27.10
2019-04-25T21:08:37.797Z,27.09
2019-04-25T21:11:10.913Z,27.10
2019-04-25T21:14:01.880Z,27.11
2019-04-25T21:16:40.880Z,27.10
2019-04-25T21:19:29.288Z,27.11
2019-04-25T21:22:01.105Z,27.10
2019-04-25T21:24:32.659Z,27.08
2019-04-25T21:27:03.784Z,27.05
2019-04-25T21:29:35.303Z,27.02
2019-04-25T21:32:06.630Z,26.95
2019-04-25T21:34:37.869Z,26.82
2019-04-25T21:37:09.379Z,26.81
2019-04-25T21:39:45.988Z,26.89
2019-04-25T21:42:31.528Z,26.88
2019-04-25T21:45:03.224Z,26.76
2019-04-25T21:47:34.781Z,26.75
2019-04-25T21:50:07.412Z,26.68
2019-04-25T21:52:39.336Z,26.65
2019-04-25T21:55:10.898Z,26.71
2019-04-25T21:57:42.621Z,26.77
2019-04-25T22:00:16.532Z,26.81
2019-04-25T22:02:48.732Z,26.80
2019-04-25T22:05:20.549Z,26.78
2019-04-25T22:07:52.258Z,26.79
2019-04-25T22:10:24.025Z,26.79
2019-04-25T22:12:57.719Z,26.82
2019-04-25T22:15:29.128Z,26.81
2019-04-25T22:18:00.830Z,26.83
2019-04-25T22:20:32.386Z,26.82
2019-04-25T22:23:04.667Z,26.84
2019-04-25T22:25:36.934Z,26.84
2019-04-25T22:28:08.536Z,26.87
2019-04-25T22:30:40.906Z,26.88
2019-04-25T22:33:16.533Z,26.87
2019-04-25T22:35:49.609Z,26.82
2019-04-25T22:38:21.248Z,26.82
2019-04-25T22:40:52.810Z,26.76
2019-04-25T22:43:24.508Z,26.73
2019-04-25T22:45:57.563Z,26.72
2019-04-25T22:48:46.637Z,26.69
2019-04-25T22:51:24.736Z,26.65
2019-04-25T22:53:56.671Z,26.67
2019-04-25T22:56:31.142Z,26.65
2019-04-25T22:59:03.105Z,26.62
2019-04-25T23:01:36.826Z,26.61
2019-04-25T23:04:10.616Z,26.63
2019-04-25T23:06:43.037Z,26.70
2019-04-25T23:09:14.393Z,26.67
2019-04-25T23:11:46.051Z,26.64
2019-04-25T23:14:17.901Z,26.64
2019-04-25T23:16:49.428Z,26.62
2019-04-25T23:19:22.174Z,26.58
2019-04-25T23:21:53.768Z,26.58
2019-04-25T23:24:26.833Z,26.58
2019-04-25T23:27:10.470Z,26.62
2019-04-25T23:29:46.577Z,26.60
2019-04-25T23:32:17.955Z,26.56
2019-04-25T23:34:49.215Z,26.55
2019-04-25T23:37:20.770Z,26.54
2019-04-25T23:39:52.118Z,26.52
2019-04-25T23:42:23.513Z,26.53
2019-04-25T23:44:54.955Z,26.53
2019-04-25T23:47:26.995Z,26.55
2019-04-25T23:49:58.677Z,26.51
2019-04-25T23:52:30.133Z,26.52
2019-04-25T23:55:01.451Z,26.55
2019-04-25T23:57:32.741Z,26.55
